Accueil
METAR-TAF:

METAR-TAF

Aéroports :

Cranfield, Angleterre

latitude: 52-04N, longitude: 000-37W, altitude: 111 m

Observation

Le bulletin a été fait il y a 7 heures et 15 minutes, à 17:20 UTC
Vent 7 kt de nord-est
Température 5°C
Humidité 93%
Pression 1025 hPa
Visibilité: 7000 m
Nuages fragmentés à une hauteur de 3500 ft

METAR: EGTC 211720Z 04007KT 7000 BKN035 05/04 Q1025

Heure: 00:35 (00:35 UTC)

Prévision

Le bulletin a été fait il y a 10 heures et 31 minutes, à 14:04 UTC
Prévision valable du 21 à 15 UTC au 21 à 19 UTC
Vent 8 kt de nord/nord-est
Visibilité: 2000 m
Nuages épars à une hauteur de 1500 ft
brume sèche
Probabilité 30% :
Temporairement
du 21 à 15 UTC au 21 à 19 UTC
Visibilité: 6000 m
Nuages fragmentés à une hauteur de 1200 ft

TAF: EGTC 211404Z 2115/2119 02008KT 2000 HZ SCT015 PROB30 TEMPO 2115/2119 6000 NSW BKN012

Observations et prévisions météorologiques de plus de 4000 aéroports (messages METAR et TAF).

Les stations disponibles sont représentées par des disques jaunes et rouges sur la carte.

Passer la souris dessus pour voir le nom de la station.

Cliquer dessus pour voir les observations et prévisions météorologiques.

Pour changer de carte: cliquez sur les boutons verts avec une croix noire pour zoomer, sur le bouton vert avec un tiret pour effectuer un zoom arrière, ou sur les flèches vertes pour les cartes adjacentes.


METAR-TAF: